createdAt,value
2022-12-31T00:02:26.197Z,100076.03
2022-12-31T00:04:55.192Z,100083.50
2022-12-31T00:07:22.087Z,100094.50
2022-12-31T00:09:49.056Z,100091.75
2022-12-31T00:12:15.994Z,100100.41
2022-12-31T00:14:42.870Z,100085.03
2022-12-31T00:17:09.775Z,100094.88
2022-12-31T00:19:36.705Z,100086.22
2022-12-31T00:22:03.649Z,100087.03
2022-12-31T00:24:31.258Z,100087.38
2022-12-31T00:26:58.426Z,100079.16
2022-12-31T00:29:25.520Z,100087.06
2022-12-31T00:31:52.490Z,100093.38
2022-12-31T00:34:19.460Z,100091.38
2022-12-31T00:36:47.391Z,100090.63
2022-12-31T00:39:14.520Z,100091.78
2022-12-31T00:41:43.953Z,100094.13
2022-12-31T00:44:12.318Z,100092.19
2022-12-31T00:49:05.839Z,100104.44
2022-12-31T00:51:32.952Z,100095.00
2022-12-31T00:54:00.119Z,100093.06
2022-12-31T00:56:29.509Z,100092.63
2022-12-31T00:58:56.929Z,100094.22
2022-12-31T01:01:29.828Z,100095.38
2022-12-31T01:04:00.941Z,100088.66
2022-12-31T01:06:28.054Z,100081.56
2022-12-31T01:08:55.796Z,100089.06
2022-12-31T01:11:24.116Z,100085.09
2022-12-31T01:14:07.973Z,100092.56
2022-12-31T01:16:41.561Z,100091.38
2022-12-31T01:19:11.305Z,100092.50
2022-12-31T01:21:40.107Z,100100.41
2022-12-31T01:24:08.494Z,100093.66
2022-12-31T01:26:35.993Z,100108.25
2022-12-31T01:29:04.690Z,100103.47
2022-12-31T01:31:33.730Z,100104.28
2022-12-31T01:34:01.188Z,100108.19
2022-12-31T01:36:30.453Z,100101.91
2022-12-31T01:38:59.459Z,100107.78
2022-12-31T01:41:31.107Z,100118.03
2022-12-31T01:44:22.904Z,100105.44
2022-12-31T01:46:53.975Z,100113.31
2022-12-31T01:49:35.465Z,100120.78
2022-12-31T01:52:07.346Z,100118.03
2022-12-31T01:54:39.760Z,100121.53
2022-12-31T01:57:09.130Z,100119.59
2022-12-31T01:59:36.677Z,100118.38
2022-12-31T02:02:05.075Z,100127.81
2022-12-31T02:04:33.138Z,100127.41
2022-12-31T02:07:07.044Z,100127.41
2022-12-31T02:09:38.238Z,100140.44
2022-12-31T02:12:06.677Z,100135.69
2022-12-31T02:14:41.108Z,100122.25
2022-12-31T02:17:17.145Z,100110.38
2022-12-31T02:20:13.732Z,100118.56
2022-12-31T02:23:18.058Z,100126.38
2022-12-31T02:25:48.176Z,100127.88
2022-12-31T02:28:30.856Z,100127.47
2022-12-31T02:31:23.239Z,100123.50
2022-12-31T02:33:50.087Z,100116.38
2022-12-31T02:36:23.610Z,100127.41
2022-12-31T02:38:51.090Z,100123.06
2022-12-31T02:41:38.345Z,100129.38
2022-12-31T02:44:38.534Z,100125.44
2022-12-31T02:47:05.305Z,100123.09
2022-12-31T02:49:32.091Z,100121.19
2022-12-31T02:52:07.915Z,100114.13
2022-12-31T02:55:07.682Z,100119.66
2022-12-31T02:57:47.061Z,100114.88
2022-12-31T03:00:35.945Z,100103.81
2022-12-31T03:03:05.807Z,100111.63
2022-12-31T03:05:38.239Z,100105.31
2022-12-31T03:08:05.424Z,100106.47
2022-12-31T03:10:32.302Z,100114.28
2022-12-31T03:12:59.218Z,100112.25
2022-12-31T03:15:31.721Z,100107.50
2022-12-31T03:18:00.840Z,100106.97
2022-12-31T03:20:59.197Z,100115.97
2022-12-31T03:23:27.472Z,100101.69
2022-12-31T03:25:56.523Z,100094.19
2022-12-31T03:28:27.210Z,100091.41
2022-12-31T03:30:56.942Z,100096.47
2022-12-31T03:33:24.661Z,100096.88
2022-12-31T03:35:52.690Z,100098.78
2022-12-31T03:38:20.064Z,100096.00
2022-12-31T03:40:52.136Z,100100.72
2022-12-31T03:43:20.420Z,100099.91
2022-12-31T03:45:51.795Z,100097.50
2022-12-31T03:48:20.643Z,100099.84
2022-12-31T03:50:47.607Z,100103.75
2022-12-31T03:53:15.045Z,100093.91
2022-12-31T03:55:42.792Z,100097.44
2022-12-31T03:58:09.759Z,100108.47
2022-12-31T04:00:36.824Z,100100.19
2022-12-31T04:03:03.970Z,100109.25
2022-12-31T04:05:31.327Z,100108.09
2022-12-31T04:07:58.309Z,100102.66
2022-12-31T04:10:25.169Z,100107.81
2022-12-31T04:12:52.213Z,100111.00
2022-12-31T04:15:20.582Z,100106.66
2022-12-31T04:17:48.211Z,100108.63
2022-12-31T04:20:15.913Z,100106.22
2022-12-31T04:22:44.060Z,100106.63
2022-12-31T04:25:11.706Z,100115.63
2022-12-31T04:27:40.308Z,100102.59
2022-12-31T04:30:10.808Z,100108.47
2022-12-31T04:32:37.681Z,100110.00
2022-12-31T04:35:05.299Z,100112.34
2022-12-31T04:37:32.287Z,100109.59
2022-12-31T04:40:05.117Z,100120.16
2022-12-31T04:42:32.728Z,100105.97
2022-12-31T04:44:59.531Z,100103.59
2022-12-31T04:47:26.494Z,100113.81
2022-12-31T04:49:53.448Z,100111.06
2022-12-31T04:52:20.468Z,100111.81
2022-12-31T04:54:47.433Z,100121.66
2022-12-31T04:57:14.366Z,100113.41
2022-12-31T04:59:41.228Z,100122.44
2022-12-31T05:02:09.845Z,100122.44
2022-12-31T05:04:36.963Z,100124.84
2022-12-31T05:07:03.831Z,100121.69
2022-12-31T05:09:31.196Z,100113.03
2022-12-31T05:11:58.210Z,100095.28
2022-12-31T05:14:25.316Z,100096.41
2022-12-31T05:16:54.017Z,100101.44
2022-12-31T05:19:21.153Z,100093.13
2022-12-31T05:22:08.135Z,100099.84
2022-12-31T05:24:35.005Z,100108.88
2022-12-31T05:27:02.094Z,100098.66
2022-12-31T05:29:28.985Z,100106.13
2022-12-31T05:31:56.127Z,100112.88
2022-12-31T05:34:23.021Z,100118.00
2022-12-31T05:36:49.864Z,100117.19
2022-12-31T05:39:17.407Z,100127.06
2022-12-31T05:41:44.229Z,100138.47
2022-12-31T05:44:11.548Z,100140.47
2022-12-31T05:46:38.429Z,100147.59
2022-12-31T05:49:05.381Z,100167.66
2022-12-31T05:51:32.453Z,100153.09
2022-12-31T05:53:59.332Z,100155.03
2022-12-31T05:56:26.204Z,100154.69
2022-12-31T05:58:53.126Z,100149.59
2022-12-31T06:01:20.158Z,100167.34
2022-12-31T06:03:47.448Z,100156.31
2022-12-31T06:06:14.510Z,100159.50
2022-12-31T06:08:41.342Z,100171.34
2022-12-31T06:11:08.202Z,100162.72
2022-12-31T06:13:35.047Z,100172.22
2022-12-31T06:16:09.508Z,100160.81
2022-12-31T06:18:37.064Z,100157.31
2022-12-31T06:21:04.487Z,100147.53
2022-12-31T06:23:32.185Z,100155.78
2022-12-31T06:26:05.596Z,100159.34
2022-12-31T06:28:33.306Z,100160.06
2022-12-31T06:31:01.072Z,100164.00
2022-12-31T06:33:28.299Z,100156.91
2022-12-31T06:35:57.118Z,100154.91
2022-12-31T06:38:26.052Z,100143.88
2022-12-31T06:40:53.466Z,100136.72
2022-12-31T06:43:21.040Z,100145.78
2022-12-31T06:45:47.963Z,100149.34
2022-12-31T06:48:14.863Z,100145.38
2022-12-31T06:50:42.202Z,100146.09
2022-12-31T06:53:09.108Z,100146.91
2022-12-31T06:55:36.321Z,100148.06
2022-12-31T06:58:04.809Z,100161.03
2022-12-31T07:00:31.868Z,100160.22
2022-12-31T07:03:19.717Z,100149.97
2022-12-31T07:05:55.415Z,100152.69
2022-12-31T07:08:47.130Z,100143.97
2022-12-31T07:11:26.885Z,100137.25
2022-12-31T07:13:59.110Z,100128.22
2022-12-31T07:16:39.253Z,100138.41
2022-12-31T07:19:33.399Z,100138.78
2022-12-31T07:22:00.599Z,100148.22
2022-12-31T07:24:27.952Z,100151.34
2022-12-31T07:26:57.817Z,100153.28
2022-12-31T07:29:27.457Z,100163.88
2022-12-31T07:32:06.279Z,100131.63
2022-12-31T07:34:51.760Z,100135.56
2022-12-31T07:37:21.599Z,100145.78
2022-12-31T07:39:59.697Z,100147.38
2022-12-31T07:42:35.798Z,100119.47
2022-12-31T07:45:25.363Z,100120.69
2022-12-31T07:47:56.300Z,100122.69
2022-12-31T07:50:26.144Z,100137.72
2022-12-31T07:52:53.547Z,100165.72
2022-12-31T07:55:20.453Z,100153.97
2022-12-31T07:58:03.458Z,100139.06
2022-12-31T08:00:31.213Z,100127.31
2022-12-31T08:03:35.972Z,100117.16
2022-12-31T08:06:19.502Z,100099.50
2022-12-31T08:08:53.957Z,100093.66
2022-12-31T08:11:30.014Z,100098.03
2022-12-31T08:14:02.913Z,100111.84
2022-12-31T08:16:30.762Z,100107.19
2022-12-31T08:18:57.904Z,100108.81
2022-12-31T08:21:34.571Z,100106.47
2022-12-31T08:24:04.541Z,100095.19
2022-12-31T08:26:40.965Z,100099.19
2022-12-31T08:29:10.899Z,100106.31
2022-12-31T08:31:52.484Z,100100.50
2022-12-31T08:34:35.402Z,100110.78
2022-12-31T08:37:27.892Z,100108.13
2022-12-31T08:40:15.093Z,100110.16
2022-12-31T08:42:51.531Z,100122.84
2022-12-31T08:45:27.452Z,100109.97
2022-12-31T08:48:03.288Z,100119.84
2022-12-31T08:50:30.765Z,100112.88
2022-12-31T08:52:59.037Z,100109.78
2022-12-31T08:55:26.249Z,100111.47
2022-12-31T08:58:19.364Z,100115.13
2022-12-31T09:00:50.072Z,100119.13
2022-12-31T09:03:50.592Z,100122.75
2022-12-31T09:06:36.148Z,100115.31
2022-12-31T09:09:06.924Z,100116.56
2022-12-31T09:11:54.496Z,100109.50
2022-12-31T09:14:47.464Z,100114.72
2022-12-31T09:17:48.410Z,100114.34
2022-12-31T09:20:15.941Z,100117.91
2022-12-31T09:22:43.220Z,100122.66
2022-12-31T09:25:18.729Z,100120.28
2022-12-31T09:27:54.647Z,100125.44
2022-12-31T09:30:21.988Z,100127.41
2022-12-31T09:33:08.171Z,100140.81
2022-12-31T09:35:56.504Z,100135.28
2022-12-31T09:39:00.563Z,100140.44
2022-12-31T09:41:55.663Z,100145.56
2022-12-31T09:44:41.148Z,100146.34
2022-12-31T09:47:42.513Z,100155.47
2022-12-31T09:50:27.845Z,100159.78
2022-12-31T09:53:13.943Z,100170.06
2022-12-31T09:55:52.827Z,100157.13
2022-12-31T09:58:43.451Z,100155.50
2022-12-31T10:01:27.385Z,100163.88
2022-12-31T10:04:23.315Z,100171.78
2022-12-31T10:07:08.577Z,100163.56
2022-12-31T10:09:44.691Z,100169.94
2022-12-31T10:12:22.852Z,100166.41
2022-12-31T10:15:30.601Z,100169.28
2022-12-31T10:18:34.891Z,100170.91
2022-12-31T10:21:25.576Z,100200.59
2022-12-31T10:24:20.277Z,100201.00
2022-12-31T10:27:16.920Z,100197.06
2022-12-31T10:29:55.090Z,100185.25
2022-12-31T10:32:40.403Z,100187.63
2022-12-31T10:35:25.990Z,100180.94
2022-12-31T10:38:22.661Z,100216.16
2022-12-31T10:41:11.158Z,100194.03
2022-12-31T10:44:07.751Z,100192.47
2022-12-31T10:46:52.842Z,100185.38
2022-12-31T10:49:51.200Z,100185.38
2022-12-31T10:52:29.933Z,100187.00
2022-12-31T10:55:33.883Z,100193.38
2022-12-31T10:58:09.859Z,100205.63
2022-12-31T11:00:59.592Z,100198.13
2022-12-31T11:03:46.025Z,100192.19
2022-12-31T11:06:41.160Z,100177.53
2022-12-31T11:09:34.342Z,100190.94
2022-12-31T11:12:24.270Z,100196.50
2022-12-31T11:14:58.288Z,100194.47
2022-12-31T11:17:48.022Z,100207.50
2022-12-31T11:20:23.836Z,100215.03
2022-12-31T11:23:06.359Z,100223.72
2022-12-31T11:26:19.754Z,100228.50
2022-12-31T11:29:05.372Z,100214.66
2022-12-31T11:32:10.354Z,100210.69
2022-12-31T11:35:20.361Z,100215.03
2022-12-31T11:37:50.860Z,100205.16
2022-12-31T11:40:29.905Z,100206.34
2022-12-31T11:43:11.083Z,100200.81
2022-12-31T11:46:00.702Z,100215.81
2022-12-31T11:48:41.370Z,100210.31
2022-12-31T11:51:32.835Z,100202.03
2022-12-31T11:54:26.213Z,100204.03
2022-12-31T11:57:26.398Z,100200.91
2022-12-31T12:00:17.010Z,100206.06
2022-12-31T12:02:47.386Z,100202.91
2022-12-31T12:05:17.220Z,100203.31
2022-12-31T12:07:44.585Z,100212.41
2022-12-31T12:10:36.000Z,100195.38
2022-12-31T12:13:30.245Z,100201.28
2022-12-31T12:16:01.000Z,100207.63
2022-12-31T12:18:41.001Z,100207.59
2022-12-31T12:21:15.350Z,100203.66
2022-12-31T12:24:01.237Z,100192.56
2022-12-31T12:26:41.640Z,100195.72
2022-12-31T12:29:34.446Z,100205.59
2022-12-31T12:32:17.444Z,100195.69
2022-12-31T12:34:49.452Z,100202.41
2022-12-31T12:37:30.196Z,100210.69
2022-12-31T12:39:58.614Z,100223.34
2022-12-31T12:42:25.993Z,100217.03
2022-12-31T12:45:15.925Z,100220.97
2022-12-31T12:47:44.259Z,100221.34
2022-12-31T12:50:23.449Z,100218.19
2022-12-31T12:52:59.370Z,100219.38
2022-12-31T12:55:48.792Z,100218.19
2022-12-31T12:58:27.480Z,100224.13
2022-12-31T13:01:06.203Z,100238.31
2022-12-31T13:04:32.453Z,100247.03
2022-12-31T13:07:02.230Z,100246.22
2022-12-31T13:09:47.178Z,100254.50
2022-12-31T13:12:23.128Z,100242.28
2022-12-31T13:15:14.983Z,100259.63
2022-12-31T13:18:12.239Z,100256.47
2022-12-31T13:20:53.903Z,100262.00
2022-12-31T13:23:27.628Z,100286.88
2022-12-31T13:26:03.809Z,100274.22
2022-12-31T13:28:33.401Z,100277.78
2022-12-31T13:31:07.063Z,100273.00
2022-12-31T13:33:45.325Z,100265.06
2022-12-31T13:36:19.423Z,100272.13
2022-12-31T13:38:50.764Z,100275.28
2022-12-31T13:41:23.521Z,100276.03
2022-12-31T13:43:56.997Z,100279.94
2022-12-31T13:46:34.523Z,100279.13
2022-12-31T13:49:05.387Z,100273.56
2022-12-31T13:51:41.979Z,100272.34
2022-12-31T13:54:34.123Z,100279.84
2022-12-31T13:57:05.809Z,100283.38
2022-12-31T13:59:38.296Z,100279.41
2022-12-31T14:02:43.252Z,100279.44
2022-12-31T14:05:36.581Z,100270.81
2022-12-31T14:08:05.820Z,100271.22
2022-12-31T14:11:03.382Z,100276.41
2022-12-31T14:14:05.463Z,100272.81
2022-12-31T14:16:50.842Z,100281.91
2022-12-31T14:19:52.293Z,100291.00
2022-12-31T14:22:31.514Z,100274.81
2022-12-31T14:25:00.659Z,100277.59
2022-12-31T14:27:35.681Z,100287.47
2022-12-31T14:30:07.073Z,100294.19
2022-12-31T14:32:40.307Z,100287.06
2022-12-31T14:35:26.761Z,100304.03
2022-12-31T14:38:03.333Z,100300.44
2022-12-31T14:40:56.700Z,100303.22
2022-12-31T14:43:35.008Z,100306.38
2022-12-31T14:46:27.266Z,100304.38
2022-12-31T14:49:15.836Z,100313.44
2022-12-31T14:51:42.811Z,100317.72
2022-12-31T14:54:36.217Z,100312.16
2022-12-31T14:57:17.051Z,100317.66
2022-12-31T14:59:57.412Z,100322.78
2022-12-31T15:02:29.719Z,100321.97
2022-12-31T15:05:28.496Z,100323.16
2022-12-31T15:08:13.465Z,100317.59
2022-12-31T15:11:05.079Z,100326.25
2022-12-31T15:14:09.185Z,100344.38
2022-12-31T15:16:45.939Z,100336.06
2022-12-31T15:19:47.662Z,100336.00
2022-12-31T15:22:33.232Z,100343.91
2022-12-31T15:25:01.157Z,100353.34
2022-12-31T15:27:34.883Z,100356.88
2022-12-31T15:30:03.376Z,100351.75
2022-12-31T15:32:37.078Z,100361.94
2022-12-31T15:35:26.143Z,100355.59
2022-12-31T15:38:03.922Z,100353.97
2022-12-31T15:40:31.010Z,100352.81
2022-12-31T15:43:25.978Z,100355.56
2022-12-31T15:45:55.408Z,100346.03
2022-12-31T15:48:35.341Z,100351.25
2022-12-31T15:51:03.039Z,100345.34
2022-12-31T15:53:35.856Z,100346.56
2022-12-31T15:56:03.168Z,100334.31
2022-12-31T15:58:36.524Z,100341.03
2022-12-31T16:01:10.151Z,100346.97
2022-12-31T16:03:37.584Z,100322.50
2022-12-31T16:06:11.488Z,100323.72
2022-12-31T16:08:40.683Z,100329.69
2022-12-31T16:11:09.053Z,100327.31
2022-12-31T16:13:42.578Z,100321.44
2022-12-31T16:16:21.286Z,100312.75
2022-12-31T16:18:50.570Z,100316.72
2022-12-31T16:21:35.245Z,100305.66
2022-12-31T16:24:26.453Z,100313.59
2022-12-31T16:26:56.187Z,100295.44
2022-12-31T16:29:24.252Z,100303.81
2022-12-31T16:31:53.907Z,100300.28
2022-12-31T16:34:23.931Z,100303.44
2022-12-31T16:37:04.467Z,100301.06
2022-12-31T16:39:36.659Z,100300.75
2022-12-31T16:42:20.229Z,100303.50
2022-12-31T16:44:49.338Z,100303.47
2022-12-31T16:47:35.193Z,100309.75
2022-12-31T16:50:13.619Z,100300.66
2022-12-31T16:52:44.076Z,100304.22
2022-12-31T16:55:29.922Z,100318.41
2022-12-31T16:58:01.826Z,100309.75
2022-12-31T17:00:28.953Z,100305.41
2022-12-31T17:03:09.158Z,100297.47
2022-12-31T17:05:57.053Z,100304.56
2022-12-31T17:08:38.731Z,100311.66
2022-12-31T17:11:05.704Z,100309.69
2022-12-31T17:13:35.096Z,100312.84
2022-12-31T17:16:02.684Z,100303.00
2022-12-31T17:18:37.099Z,100301.03
2022-12-31T17:21:10.448Z,100296.69
2022-12-31T17:23:39.933Z,100301.38
2022-12-31T17:26:22.211Z,100288.34
2022-12-31T17:28:52.061Z,100295.84
2022-12-31T17:31:26.183Z,100277.31
2022-12-31T17:33:55.040Z,100286.75
2022-12-31T17:36:25.143Z,100268.63
2022-12-31T17:38:52.518Z,100263.47
2022-12-31T17:41:26.626Z,100269.38
2022-12-31T17:43:55.857Z,100285.97
2022-12-31T17:46:24.437Z,100275.28
2022-12-31T17:48:56.095Z,100288.28
2022-12-31T17:51:24.604Z,100293.03
2022-12-31T17:53:51.741Z,100304.94
2022-12-31T17:56:20.109Z,100299.03
2022-12-31T17:58:54.482Z,100305.38
2022-12-31T18:01:23.346Z,100297.84
2022-12-31T18:03:50.645Z,100310.09
2022-12-31T18:06:19.614Z,100309.66
2022-12-31T18:08:48.025Z,100299.03
2022-12-31T18:11:21.307Z,100288.00
2022-12-31T18:13:48.790Z,100290.38
2022-12-31T18:16:17.088Z,100282.50
2022-12-31T18:18:45.927Z,100280.53
2022-12-31T18:21:29.940Z,100284.47
2022-12-31T18:26:24.260Z,100282.00
2022-12-31T18:28:51.966Z,100287.50
2022-12-31T18:31:25.074Z,100285.13
2022-12-31T18:33:53.705Z,100273.28
2022-12-31T18:36:22.843Z,100270.50
2022-12-31T18:38:51.094Z,100260.66
2022-12-31T18:41:23.106Z,100265.50
2022-12-31T18:43:51.086Z,100259.63
2022-12-31T18:46:24.130Z,100264.38
2022-12-31T18:48:51.569Z,100270.75
2022-12-31T18:51:31.280Z,100271.16
2022-12-31T18:54:00.529Z,100263.72
2022-12-31T18:56:28.142Z,100279.56
2022-12-31T18:58:55.286Z,100262.22
2022-12-31T19:01:34.195Z,100267.38
2022-12-31T19:04:11.433Z,100248.03
2022-12-31T19:06:38.360Z,100273.78
2022-12-31T19:09:17.946Z,100273.00
2022-12-31T19:11:52.752Z,100263.50
2022-12-31T19:14:24.194Z,100261.56
2022-12-31T19:16:52.648Z,100267.06
2022-12-31T19:19:20.129Z,100269.13
2022-12-31T19:21:47.721Z,100261.59
2022-12-31T19:24:20.606Z,100265.97
2022-12-31T19:26:48.689Z,100272.25
2022-12-31T19:29:27.042Z,100260.34
2022-12-31T19:31:54.000Z,100261.94
2022-12-31T19:34:20.993Z,100256.00
2022-12-31T19:36:48.223Z,100248.47
2022-12-31T19:39:20.561Z,100266.25
2022-12-31T19:41:52.917Z,100272.97
2022-12-31T19:44:23.486Z,100263.13
2022-12-31T19:46:50.351Z,100252.91
2022-12-31T19:49:17.315Z,100262.41
2022-12-31T19:51:44.171Z,100271.47
2022-12-31T19:54:13.056Z,100265.59
2022-12-31T19:56:40.023Z,100260.88
2022-12-31T19:59:08.582Z,100267.19
2022-12-31T20:01:35.837Z,100278.25
2022-12-31T20:04:02.885Z,100281.41
2022-12-31T20:06:29.728Z,100281.81
2022-12-31T20:08:56.645Z,100277.06
2022-12-31T20:11:24.506Z,100272.34
2022-12-31T20:13:53.648Z,100280.66
2022-12-31T20:16:24.181Z,100281.44
2022-12-31T20:18:51.248Z,100281.78
2022-12-31T20:21:24.024Z,100284.13
2022-12-31T20:23:53.102Z,100300.81
2022-12-31T20:26:22.245Z,100305.19
2022-12-31T20:28:49.457Z,100296.53
2022-12-31T20:31:20.345Z,100289.41
2022-12-31T20:33:47.410Z,100304.50
2022-12-31T20:36:17.160Z,100310.03
2022-12-31T20:38:44.715Z,100314.41
2022-12-31T20:41:14.797Z,100323.50
2022-12-31T20:43:42.831Z,100301.34
2022-12-31T20:46:15.409Z,100313.63
2022-12-31T20:48:44.436Z,100321.50
2022-12-31T20:51:13.051Z,100309.56
2022-12-31T20:53:40.304Z,100319.03
2022-12-31T20:56:08.922Z,100320.22
2022-12-31T20:58:36.205Z,100310.31
2022-12-31T21:01:07.539Z,100328.91
2022-12-31T21:06:28.635Z,100327.69
2022-12-31T21:08:57.155Z,100327.25
2022-12-31T21:11:42.364Z,100330.00
2022-12-31T21:14:09.451Z,100322.81
2022-12-31T21:16:36.484Z,100327.56
2022-12-31T21:19:03.712Z,100333.09
2022-12-31T21:21:30.810Z,100344.53
2022-12-31T21:23:57.835Z,100335.78
2022-12-31T21:26:24.755Z,100342.38
2022-12-31T21:28:53.065Z,100315.78
2022-12-31T21:31:20.203Z,100332.72
2022-12-31T21:33:47.972Z,100330.28
2022-12-31T21:36:16.109Z,100334.97
2022-12-31T21:38:43.585Z,100324.38
2022-12-31T21:41:35.084Z,100329.16
2022-12-31T21:44:02.516Z,100316.94
2022-12-31T21:46:29.628Z,100318.94
2022-12-31T21:48:58.172Z,100332.78
2022-12-31T21:51:26.088Z,100327.25
2022-12-31T21:53:53.053Z,100323.72
2022-12-31T21:56:21.453Z,100317.44
2022-12-31T21:59:15.894Z,100328.88
2022-12-31T22:02:01.701Z,100328.13
2022-12-31T22:05:01.539Z,100336.03
2022-12-31T22:07:19.330Z,100337.66
2022-12-31T22:09:47.120Z,100334.13
2022-12-31T22:12:14.062Z,100335.34
2022-12-31T22:15:14.671Z,100338.53
2022-12-31T22:17:28.375Z,100350.03
2022-12-31T22:22:42.871Z,100358.47
2022-12-31T22:25:09.900Z,100358.47
2022-12-31T22:27:36.762Z,100356.53
2022-12-31T22:30:04.307Z,100361.75
2022-12-31T22:32:31.277Z,100364.56
2022-12-31T22:34:58.158Z,100364.19
2022-12-31T22:37:55.601Z,100366.59
2022-12-31T22:40:12.763Z,100392.72
2022-12-31T22:42:40.014Z,100370.56
2022-12-31T22:45:08.300Z,100357.94
2022-12-31T22:47:35.586Z,100376.09
2022-12-31T22:50:02.642Z,100370.19
2022-12-31T22:52:29.462Z,100366.97
2022-12-31T22:54:56.684Z,100362.94
2022-12-31T22:57:23.724Z,100368.03
2022-12-31T22:59:51.422Z,100366.47
2022-12-31T23:02:18.444Z,100363.31
2022-12-31T23:04:45.896Z,100367.28
2022-12-31T23:07:13.116Z,100372.91
2022-12-31T23:09:58.721Z,100382.41
2022-12-31T23:12:25.757Z,100380.06
2022-12-31T23:15:11.102Z,100393.84
2022-12-31T23:17:56.583Z,100392.19
2022-12-31T23:20:43.385Z,100387.00
2022-12-31T23:23:15.935Z,100386.56
2022-12-31T23:25:47.431Z,100388.09
2022-12-31T23:28:20.564Z,100378.19
2022-12-31T23:30:47.613Z,100393.94
2022-12-31T23:33:20.657Z,100398.28
2022-12-31T23:35:47.660Z,100399.03
2022-12-31T23:38:17.184Z,100394.28
2022-12-31T23:40:44.637Z,100405.78
2022-12-31T23:43:20.303Z,100399.41
2022-12-31T23:45:51.226Z,100409.63
2022-12-31T23:48:18.295Z,100411.91
2022-12-31T23:50:50.875Z,100420.50
2022-12-31T23:53:19.944Z,100408.22
2022-12-31T23:55:47.388Z,100417.59
2022-12-31T23:58:15.293Z,100420.31
